Flight Track Log - Related Links

Times and Time Zones

All times are in EDT time to prevent confusion due to time zone crossing. See the SWA1233 flight status page for this flight to view local times or setup timezone preferences in your user account.

Time Position Orientation Groundspeed Altitude Reporting Facility
EDT Latitude Longitude Course Direction KTS MPH feet Rate Location/Type
Sat 02:23:27 PM 36.0639 -115.1722 209° Southwest 167 192 3,700  Level Los Angeles Center
Sat 02:24:28 PM 36.0133 -115.2075 209° Southwest 235 270 6,000 1,960 Climbing Los Angeles Center
Sat 02:25:08 PM 35.9886 -115.2611 240° Southwest 260 299 7,000 909 Climbing Los Angeles Center
Sat 02:25:34 PM 35.9739 -115.2947 242° Southwest 293 337 7,000 1,258 Level Los Angeles Center
Sat 02:26:10 PM 35.9408 -115.3367 226° Southwest 277 319 8,300 2,755 Climbing Los Angeles Center
Sat 02:27:12 PM 35.8881 -115.4197 232° Southwest 291 335 11,500 2,323 Climbing Los Angeles Center
Sat 02:28:14 PM 35.8872 -115.5336 270° West 336 387 13,100 2,274 Climbing Los Angeles Center
Sat 02:29:16 PM 35.8894 -115.6586 271° West 361 415 16,200 3,194 Climbing Los Angeles Center
Sat 02:30:18 PM 35.8917 -115.7978 271° West 375 432 19,700 3,024 Climbing Los Angeles Center
Sat 02:31:21 PM 35.9278 -115.9133 291° West 373 429 22,500 2,688 Climbing Los Angeles Center
Sat 02:32:23 PM 35.9944 -115.9997 314° West 363 418 25,300 2,323 Climbing Los Angeles Center
Sat 02:33:25 PM 36.0747 -116.1053 313° West 359 413 27,300 1,742 Climbing Los Angeles Center
Sat 02:34:27 PM 36.1475 -116.1994 314° West 375 432 28,900 1,742 Climbing Los Angeles Center
Sat 02:35:29 PM 36.2186 -116.2931 313° West 373 429 30,900 1,016 Climbing Los Angeles Center
Sat 02:36:31 PM 36.2897 -116.3836 314° West 372 428 31,000 871 Climbing Los Angeles Center
Sat 02:37:33 PM 36.3594 -116.4764 313° West 372 428 32,700 1,452 Climbing Los Angeles Center
Sat 02:38:35 PM 36.4297 -116.5664 314° West 370 426 34,000 968 Climbing Los Angeles Center
Sat 02:39:37 PM 36.5006 -116.6608 313° West 370 426 34,700 968 Climbing Los Angeles Center
Sat 02:40:39 PM 36.5939 -116.7725 316° Northwest 381 438 36,000 1,008 Climbing Los Angeles Center
Sat 02:41:42 PM 36.6858 -116.8400 330° Northwest 382 440 36,800 864 Climbing Los Angeles Center
Sat 02:42:44 PM 36.7769 -116.9078 329° Northwest 384 442 37,800 581 Climbing Los Angeles Center
Sat 02:43:46 PM 36.8708 -116.9811 328° Northwest 385 443 38,000 -339 Climbing Los Angeles Center
Sat 02:44:48 PM 36.9614 -117.0533 327° Northwest 385 443 37,100 -1,043 Descending Los Angeles Center
Sat 02:45:18 PM 36.9850 -117.1256 292° West 381 438 36,400 -725 Descending Oakland Center
Sat 02:46:19 PM 37.0097 -117.2658 282° West 406 467 36,000 -195 Descending Oakland Center
Sat 02:47:21 PM 37.0364 -117.4036 284° West 406 467 36,000  Level Oakland Center
Sat 02:47:53 PM 37.0508 -117.4842 283° West 401 461 36,000  Level Los Angeles Center
Sat 02:48:55 PM 37.0758 -117.6192 283° West 400 460 36,000  Level Los Angeles Center
Sat 02:49:57 PM 37.0992 -117.7531 282° West 396 456 36,000  Level Los Angeles Center
Sat 02:51:26 PM 37.1317 -117.9364 283° West 389 448 36,000  Level Oakland Center
Sat 02:52:27 PM 37.1547 -118.0644 283° West 381 438 36,000  Level Oakland Center
Sat 02:53:29 PM 37.1775 -118.1928 283° West 380 437 36,000  Level Oakland Center
Sat 02:54:30 PM 37.2053 -118.3475 283° West 380 437 36,000  Level Oakland Center
Sat 02:55:31 PM 37.2272 -118.4778 282° West 380 437 36,000  Level Oakland Center
Sat 02:56:33 PM 37.2492 -118.6039 282° West 379 436 36,000  Level Oakland Center
Sat 02:57:34 PM 37.2703 -118.7339 282° West 380 437 36,000  Level Oakland Center
Sat 02:58:35 PM 37.2931 -118.8633 283° West 380 437 36,000  Level Oakland Center
Sat 02:59:37 PM 37.3153 -118.9928 282° West 380 437 36,000  Level Oakland Center
Sat 03:00:38 PM 37.3364 -119.1211 282° West 380 437 36,000  Level Oakland Center
Sat 03:01:39 PM 37.3569 -119.2489 281° West 379 436 36,000 -683 Level Oakland Center
Sat 03:02:41 PM 37.3783 -119.3761 282° West 379 436 34,600 -1,268 Descending Oakland Center
Sat 03:03:42 PM 37.4028 -119.5281 281° West 371 427 33,400 -1,033 Descending Oakland Center
Sat 03:04:43 PM 37.4233 -119.6536 282° West 370 426 32,500 -927 Descending Oakland Center
Sat 03:05:45 PM 37.4433 -119.7797 281° West 369 425 31,500 -927 Descending Oakland Center
Sat 03:06:46 PM 37.4633 -119.9078 281° West 370 426 30,600 -732 Descending Oakland Center
Sat 03:07:48 PM 37.4842 -120.0344 282° West 370 426 30,000 -537 Descending Oakland Center
Sat 03:08:49 PM 37.5039 -120.1606 281° West 370 426 29,500 -738 Descending Oakland Center
Sat 03:09:50 PM 37.5236 -120.2858 281° West 368 423 28,500 -976 Descending Oakland Center
Sat 03:10:52 PM 37.5425 -120.4083 281° West 360 414 27,500 -976 Descending Oakland Center
Sat 03:11:53 PM 37.5614 -120.5294 281° West 355 409 26,500 -1,024 Descending Oakland Center
Sat 03:12:55 PM 37.5803 -120.6481 281° West 350 403 25,400 -1,122 Descending Oakland Center
Sat 03:13:56 PM 37.6011 -120.7894 281° West 343 395 24,200 -1,475 Descending Oakland Center
Sat 03:14:57 PM 37.6175 -120.9033 280° West 332 382 22,400 -1,907 Descending Oakland Center
Sat 03:16:05 PM 37.6167 -121.0167 270° West 331 381 20,100 -2,016 Descending Northern Cal TRACON
Sat 03:17:05 PM 37.6000 -121.1500 261° West 340 391 18,100 -2,000 Descending Northern Cal TRACON
Sat 03:18:05 PM 37.6000 -121.2500 270° West 332 382 16,100 -2,000 Descending Northern Cal TRACON
Sat 03:19:05 PM 37.5833 -121.3667 260° West 320 368 14,100 -1,950 Descending Northern Cal TRACON
Sat 03:20:05 PM 37.5667 -121.4667 258° West 310 357 12,200 -1,526 Descending Northern Cal TRACON
Sat 03:20:59 PM 37.5500 -121.5667 258° West 296 341 11,200 -895 Descending Northern Cal TRACON
Sat 03:21:59 PM 37.5333 -121.6667 258° West 277 319 10,500 -950 Descending Northern Cal TRACON
Sat 03:22:59 PM 37.5167 -121.7500 256° West 271 312 9,300 -1,000 Descending Northern Cal TRACON
Sat 03:23:59 PM 37.5000 -121.8333 256° West 240 276 8,500 -900 Descending Northern Cal TRACON
Sat 03:24:59 PM 37.5000 -121.9167 270° West 219 252 7,500 -1,158 Descending Northern Cal TRACON
Sat 03:25:53 PM 37.5000 -121.9833 270° West 230 265 6,300 -991 Descending Northern Cal TRACON
Sat 03:26:54 PM 37.5167 -122.0500 288° West 185 213 5,600 -992 Descending Northern Cal TRACON
Sat 03:27:54 PM 37.5333 -122.1000 293° West 180 207 4,300 -1,200 Descending Northern Cal TRACON
Sat 03:28:54 PM 37.5500 -122.1667 288° West 170 196 3,200 -960 Descending Northern Cal TRACON
Sat 03:29:59 PM 37.5667 -122.2167 293° West 156 180 2,300 -850 Descending Northern Cal TRACON
Sat 03:30:54 PM 37.5833 -122.2667 293° West 141 162 1,500 -750 Descending Northern Cal TRACON
Sat 03:31:59 PM 37.6000 -122.3167 293° West 126 145 800 -600 Descending Northern Cal TRACON
Sat 03:32:54 PM 37.6000 -122.3500 270° West 129 148 300 -545 Descending Northern Cal TRACON
Sat 03:35:00 PM 37.6167 -122.3667 322° Northwest  Level FlightAware Approximate

Login

Don't have an account? Register now (free) for customized features, flight alerts, and more!